Aviation Digital Data Service (ADDS)

Output produced by METARs form (1213 UTC 25 June 2019)
found at http://www.aviationweather.gov/metar/data/
 
Forecast for: YSSY (SYDNEY INTL AIRP, AU)
Text: TAF YSSY 251102Z 2512/2618 15010KT 9999 -SHRA SCT025 INTER 2512/2524 4000 SHRA SCT015 INTER 2608/2618 4000 SHRA SCT015
Forecast period: 1200 UTC 25 June 2019 to 1800 UTC 26 June 2019
Forecast type: FROM: standard forecast or significant change
Winds: from the SSE (150 degrees) at 12 MPH (10 knots; 5.1 m/s)
Visibility: 6 or more miles 10+ km)
Ceiling: at least 12,000 feet AGL
Clouds: scattered clouds at 2500 feet AGL
Weather: -SHRA  (light rain showers)
Text:
Forecast period: 1200 UTC 25 June 2019 to 0000 UTC 26 June 2019
Forecast type: TEMPORARY: The following changes expected for less than half the time period
Visibility: 2.49 miles (4.01 km)
Ceiling: at least 12,000 feet AGL
Clouds: scattered clouds at 1500 feet AGL
Weather: SHRA  (rain showers)
Text:
Forecast period: 0800 to 1800 UTC 26 June 2019
Forecast type: TEMPORARY: The following changes expected for less than half the time period
Visibility: 2.49 miles (4.01 km)
Ceiling: at least 12,000 feet AGL
Clouds: scattered clouds at 1500 feet AGL
Weather: SHRA  (rain showers)